sensor_id;sensor_type;location;lat;lon;timestamp;temperature;humidity
11221;DHT22;8517;53.546;10.104;2023-08-31T00:01:01;17.00;99.90
11221;DHT22;8517;53.546;10.104;2023-08-31T00:03:30;17.00;99.90
11221;DHT22;8517;53.546;10.104;2023-08-31T00:05:57;17.00;99.90
11221;DHT22;8517;53.546;10.104;2023-08-31T00:08:24;17.00;99.90
11221;DHT22;8517;53.546;10.104;2023-08-31T00:10:57;17.00;99.90
11221;DHT22;8517;53.546;10.104;2023-08-31T00:13:25;17.00;99.90
11221;DHT22;8517;53.546;10.104;2023-08-31T00:15:54;17.00;99.90
11221;DHT22;8517;53.546;10.104;2023-08-31T00:18:21;17.00;99.90
11221;DHT22;8517;53.546;10.104;2023-08-31T00:20:49;17.00;99.90
11221;DHT22;8517;53.546;10.104;2023-08-31T00:23:16;17.00;99.90
11221;DHT22;8517;53.546;10.104;2023-08-31T00:25:44;17.00;99.90
11221;DHT22;8517;53.546;10.104;2023-08-31T00:28:11;16.90;99.90
11221;DHT22;8517;53.546;10.104;2023-08-31T00:30:41;16.90;99.90
11221;DHT22;8517;53.546;10.104;2023-08-31T00:33:07;16.90;99.90
11221;DHT22;8517;53.546;10.104;2023-08-31T00:35:34;16.90;99.90
11221;DHT22;8517;53.546;10.104;2023-08-31T00:38:03;16.90;99.90
11221;DHT22;8517;53.546;10.104;2023-08-31T00:40:30;16.90;99.90
11221;DHT22;8517;53.546;10.104;2023-08-31T00:42:59;16.90;99.90
11221;DHT22;8517;53.546;10.104;2023-08-31T00:45:26;16.90;99.90
11221;DHT22;8517;53.546;10.104;2023-08-31T00:47:54;16.80;99.90
11221;DHT22;8517;53.546;10.104;2023-08-31T00:50:22;16.90;99.90
11221;DHT22;8517;53.546;10.104;2023-08-31T00:52:49;16.80;99.90
11221;DHT22;8517;53.546;10.104;2023-08-31T00:55:18;16.80;99.90
11221;DHT22;8517;53.546;10.104;2023-08-31T00:57:45;16.80;99.90
11221;DHT22;8517;53.546;10.104;2023-08-31T01:00:12;16.80;99.90
11221;DHT22;8517;53.546;10.104;2023-08-31T01:02:47;16.70;99.90
11221;DHT22;8517;53.546;10.104;2023-08-31T01:05:25;16.70;99.90
11221;DHT22;8517;53.546;10.104;2023-08-31T01:07:58;16.60;99.90
11221;DHT22;8517;53.546;10.104;2023-08-31T01:10:36;16.70;99.90
11221;DHT22;8517;53.546;10.104;2023-08-31T01:13:10;16.60;99.90
11221;DHT22;8517;53.546;10.104;2023-08-31T01:15:41;16.60;99.90
11221;DHT22;8517;53.546;10.104;2023-08-31T01:18:14;16.60;99.90
11221;DHT22;8517;53.546;10.104;2023-08-31T01:20:45;16.50;99.90
11221;DHT22;8517;53.546;10.104;2023-08-31T01:23:16;16.60;99.90
11221;DHT22;8517;53.546;10.104;2023-08-31T01:25:47;16.50;99.90
11221;DHT22;8517;53.546;10.104;2023-08-31T01:28:14;16.50;99.90
11221;DHT22;8517;53.546;10.104;2023-08-31T01:30:41;16.50;99.90
11221;DHT22;8517;53.546;10.104;2023-08-31T01:33:08;16.40;99.90
11221;DHT22;8517;53.546;10.104;2023-08-31T01:35:40;16.40;99.90
11221;DHT22;8517;53.546;10.104;2023-08-31T01:38:10;16.40;99.90
11221;DHT22;8517;53.546;10.104;2023-08-31T01:40:42;16.40;99.90
11221;DHT22;8517;53.546;10.104;2023-08-31T01:43:12;16.30;99.90
11221;DHT22;8517;53.546;10.104;2023-08-31T01:45:40;16.30;99.90
11221;DHT22;8517;53.546;10.104;2023-08-31T01:48:07;16.30;99.90
11221;DHT22;8517;53.546;10.104;2023-08-31T01:50:34;16.30;99.90
11221;DHT22;8517;53.546;10.104;2023-08-31T01:53:00;16.30;99.90
11221;DHT22;8517;53.546;10.104;2023-08-31T01:55:27;16.30;99.90
11221;DHT22;8517;53.546;10.104;2023-08-31T01:57:54;16.30;99.90
11221;DHT22;8517;53.546;10.104;2023-08-31T02:00:22;16.30;99.90
11221;DHT22;8517;53.546;10.104;2023-08-31T02:02:49;16.30;99.90
11221;DHT22;8517;53.546;10.104;2023-08-31T02:05:16;16.30;99.90
11221;DHT22;8517;53.546;10.104;2023-08-31T02:07:43;16.30;99.90
11221;DHT22;8517;53.546;10.104;2023-08-31T02:10:10;16.20;99.90
11221;DHT22;8517;53.546;10.104;2023-08-31T02:12:36;16.20;99.90
11221;DHT22;8517;53.546;10.104;2023-08-31T02:15:04;16.30;99.90
11221;DHT22;8517;53.546;10.104;2023-08-31T02:17:34;16.20;99.90
11221;DHT22;8517;53.546;10.104;2023-08-31T02:20:00;16.20;99.90
11221;DHT22;8517;53.546;10.104;2023-08-31T02:22:30;16.20;99.90
11221;DHT22;8517;53.546;10.104;2023-08-31T02:24:57;16.20;99.90
11221;DHT22;8517;53.546;10.104;2023-08-31T02:27:24;16.10;99.90
11221;DHT22;8517;53.546;10.104;2023-08-31T02:29:50;16.10;99.90
11221;DHT22;8517;53.546;10.104;2023-08-31T02:32:17;16.10;99.90
11221;DHT22;8517;53.546;10.104;2023-08-31T02:34:45;16.10;99.90
11221;DHT22;8517;53.546;10.104;2023-08-31T02:37:12;16.10;99.90
11221;DHT22;8517;53.546;10.104;2023-08-31T02:39:39;16.10;99.90
11221;DHT22;8517;53.546;10.104;2023-08-31T02:42:06;16.10;99.90
11221;DHT22;8517;53.546;10.104;2023-08-31T02:44:33;16.10;99.90
11221;DHT22;8517;53.546;10.104;2023-08-31T02:47:00;16.00;99.90
11221;DHT22;8517;53.546;10.104;2023-08-31T02:49:27;16.00;99.90
11221;DHT22;8517;53.546;10.104;2023-08-31T02:51:55;16.00;99.90
11221;DHT22;8517;53.546;10.104;2023-08-31T02:54:22;16.00;99.90
11221;DHT22;8517;53.546;10.104;2023-08-31T02:56:49;16.00;99.90
11221;DHT22;8517;53.546;10.104;2023-08-31T02:59:16;16.00;99.90
11221;DHT22;8517;53.546;10.104;2023-08-31T03:01:43;15.90;99.90
11221;DHT22;8517;53.546;10.104;2023-08-31T03:04:11;15.90;99.90
11221;DHT22;8517;53.546;10.104;2023-08-31T03:06:38;15.90;99.90
11221;DHT22;8517;53.546;10.104;2023-08-31T03:09:06;15.80;99.90
11221;DHT22;8517;53.546;10.104;2023-08-31T03:11:33;15.80;99.90
11221;DHT22;8517;53.546;10.104;2023-08-31T03:14:00;15.80;99.90
11221;DHT22;8517;53.546;10.104;2023-08-31T03:16:27;15.80;99.90
11221;DHT22;8517;53.546;10.104;2023-08-31T03:18:53;15.70;99.90
11221;DHT22;8517;53.546;10.104;2023-08-31T03:21:20;15.80;99.90
11221;DHT22;8517;53.546;10.104;2023-08-31T03:23:47;15.70;99.90
11221;DHT22;8517;53.546;10.104;2023-08-31T03:26:15;15.70;99.90
11221;DHT22;8517;53.546;10.104;2023-08-31T03:28:42;15.70;99.90
11221;DHT22;8517;53.546;10.104;2023-08-31T03:31:08;15.70;99.90
11221;DHT22;8517;53.546;10.104;2023-08-31T03:33:35;15.70;99.90
11221;DHT22;8517;53.546;10.104;2023-08-31T03:36:02;15.70;99.90
11221;DHT22;8517;53.546;10.104;2023-08-31T03:38:30;15.60;99.90
11221;DHT22;8517;53.546;10.104;2023-08-31T03:40:57;15.60;99.90
11221;DHT22;8517;53.546;10.104;2023-08-31T03:43:26;15.60;99.90
11221;DHT22;8517;53.546;10.104;2023-08-31T03:45:56;15.60;99.90
11221;DHT22;8517;53.546;10.104;2023-08-31T03:48:23;15.50;99.90
11221;DHT22;8517;53.546;10.104;2023-08-31T03:50:51;15.50;99.90
11221;DHT22;8517;53.546;10.104;2023-08-31T03:53:18;15.50;99.90
11221;DHT22;8517;53.546;10.104;2023-08-31T03:55:44;15.50;99.90
11221;DHT22;8517;53.546;10.104;2023-08-31T03:58:12;15.50;99.90
11221;DHT22;8517;53.546;10.104;2023-08-31T04:00:41;15.50;99.90
11221;DHT22;8517;53.546;10.104;2023-08-31T04:03:08;15.50;99.90
11221;DHT22;8517;53.546;10.104;2023-08-31T04:05:36;15.50;99.90
11221;DHT22;8517;53.546;10.104;2023-08-31T04:08:03;15.50;99.90
11221;DHT22;8517;53.546;10.104;2023-08-31T04:10:30;15.50;99.90
11221;DHT22;8517;53.546;10.104;2023-08-31T04:12:57;15.50;99.90
11221;DHT22;8517;53.546;10.104;2023-08-31T04:15:24;15.40;99.90
11221;DHT22;8517;53.546;10.104;2023-08-31T04:17:52;15.40;99.90
11221;DHT22;8517;53.546;10.104;2023-08-31T04:20:19;15.40;99.90
11221;DHT22;8517;53.546;10.104;2023-08-31T04:22:45;15.40;99.90
11221;DHT22;8517;53.546;10.104;2023-08-31T04:25:12;15.40;99.90
11221;DHT22;8517;53.546;10.104;2023-08-31T04:27:39;15.40;99.90
11221;DHT22;8517;53.546;10.104;2023-08-31T04:30:07;15.40;99.90
11221;DHT22;8517;53.546;10.104;2023-08-31T04:32:33;15.40;99.90
11221;DHT22;8517;53.546;10.104;2023-08-31T04:35:02;15.40;99.90
11221;DHT22;8517;53.546;10.104;2023-08-31T04:37:30;15.40;99.90
11221;DHT22;8517;53.546;10.104;2023-08-31T04:39:57;15.40;99.90
11221;DHT22;8517;53.546;10.104;2023-08-31T04:42:24;15.40;99.90
11221;DHT22;8517;53.546;10.104;2023-08-31T04:44:51;15.40;99.90
11221;DHT22;8517;53.546;10.104;2023-08-31T04:47:18;15.30;99.90
11221;DHT22;8517;53.546;10.104;2023-08-31T04:49:45;15.30;99.90
11221;DHT22;8517;53.546;10.104;2023-08-31T04:52:13;15.30;99.90
11221;DHT22;8517;53.546;10.104;2023-08-31T04:54:40;15.30;99.90
11221;DHT22;8517;53.546;10.104;2023-08-31T04:57:07;15.30;99.90
11221;DHT22;8517;53.546;10.104;2023-08-31T04:59:33;15.30;99.90
11221;DHT22;8517;53.546;10.104;2023-08-31T05:02:00;15.30;99.90
11221;DHT22;8517;53.546;10.104;2023-08-31T05:04:27;15.30;99.90
11221;DHT22;8517;53.546;10.104;2023-08-31T05:06:56;15.30;99.90
11221;DHT22;8517;53.546;10.104;2023-08-31T05:09:25;15.30;99.90
11221;DHT22;8517;53.546;10.104;2023-08-31T05:11:52;15.30;99.90
11221;DHT22;8517;53.546;10.104;2023-08-31T05:14:19;15.30;99.90
11221;DHT22;8517;53.546;10.104;2023-08-31T05:16:45;15.30;99.90
11221;DHT22;8517;53.546;10.104;2023-08-31T05:19:12;15.30;99.90
11221;DHT22;8517;53.546;10.104;2023-08-31T05:21:39;15.40;99.90
11221;DHT22;8517;53.546;10.104;2023-08-31T05:24:06;15.50;99.90
11221;DHT22;8517;53.546;10.104;2023-08-31T05:26:34;15.60;99.90
11221;DHT22;8517;53.546;10.104;2023-08-31T05:29:01;15.80;99.90
11221;DHT22;8517;53.546;10.104;2023-08-31T05:31:29;16.00;99.90
11221;DHT22;8517;53.546;10.104;2023-08-31T05:33:56;16.20;99.90
11221;DHT22;8517;53.546;10.104;2023-08-31T05:36:23;16.40;99.90
11221;DHT22;8517;53.546;10.104;2023-08-31T05:38:50;16.60;99.90
11221;DHT22;8517;53.546;10.104;2023-08-31T05:41:17;16.80;99.90
11221;DHT22;8517;53.546;10.104;2023-08-31T05:43:45;16.90;99.90
11221;DHT22;8517;53.546;10.104;2023-08-31T05:46:12;17.20;99.90
11221;DHT22;8517;53.546;10.104;2023-08-31T05:48:39;17.40;99.90
11221;DHT22;8517;53.546;10.104;2023-08-31T05:51:06;17.60;99.90
11221;DHT22;8517;53.546;10.104;2023-08-31T05:53:33;17.80;99.90
11221;DHT22;8517;53.546;10.104;2023-08-31T05:56:00;17.90;99.90
11221;DHT22;8517;53.546;10.104;2023-08-31T05:58:30;18.00;99.90
11221;DHT22;8517;53.546;10.104;2023-08-31T06:00:58;18.10;99.90
11221;DHT22;8517;53.546;10.104;2023-08-31T06:03:26;18.30;99.90
11221;DHT22;8517;53.546;10.104;2023-08-31T06:05:53;18.50;99.90
11221;DHT22;8517;53.546;10.104;2023-08-31T06:08:20;18.70;99.90
11221;DHT22;8517;53.546;10.104;2023-08-31T06:10:47;18.90;99.90
11221;DHT22;8517;53.546;10.104;2023-08-31T06:20:03;19.50;99.90
11221;DHT22;8517;53.546;10.104;2023-08-31T06:22:31;19.60;99.90
11221;DHT22;8517;53.546;10.104;2023-08-31T06:24:58;19.70;99.90
11221;DHT22;8517;53.546;10.104;2023-08-31T06:27:25;19.70;99.90
11221;DHT22;8517;53.546;10.104;2023-08-31T06:29:52;19.90;99.90
11221;DHT22;8517;53.546;10.104;2023-08-31T06:32:19;20.00;99.90
11221;DHT22;8517;53.546;10.104;2023-08-31T06:34:46;20.20;99.90
11221;DHT22;8517;53.546;10.104;2023-08-31T06:37:14;20.30;99.90
11221;DHT22;8517;53.546;10.104;2023-08-31T06:39:41;20.50;99.90
11221;DHT22;8517;53.546;10.104;2023-08-31T06:42:08;20.60;99.90
11221;DHT22;8517;53.546;10.104;2023-08-31T06:44:35;20.70;99.90
11221;DHT22;8517;53.546;10.104;2023-08-31T06:47:01;20.90;99.90
11221;DHT22;8517;53.546;10.104;2023-08-31T06:49:30;21.00;99.90
11221;DHT22;8517;53.546;10.104;2023-08-31T06:51:58;21.10;99.90
11221;DHT22;8517;53.546;10.104;2023-08-31T06:54:27;21.20;99.90
11221;DHT22;8517;53.546;10.104;2023-08-31T06:56:53;21.30;99.90
11221;DHT22;8517;53.546;10.104;2023-08-31T06:59:20;21.30;99.90
11221;DHT22;8517;53.546;10.104;2023-08-31T07:01:47;21.30;99.90
11221;DHT22;8517;53.546;10.104;2023-08-31T07:04:14;21.20;99.90
11221;DHT22;8517;53.546;10.104;2023-08-31T07:06:40;21.20;99.90
11221;DHT22;8517;53.546;10.104;2023-08-31T07:09:07;21.20;99.90
11221;DHT22;8517;53.546;10.104;2023-08-31T07:11:35;21.20;99.90
11221;DHT22;8517;53.546;10.104;2023-08-31T07:14:02;21.20;99.90
11221;DHT22;8517;53.546;10.104;2023-08-31T07:16:29;21.20;99.90
11221;DHT22;8517;53.546;10.104;2023-08-31T07:18:56;21.20;99.90
11221;DHT22;8517;53.546;10.104;2023-08-31T07:21:22;21.30;99.90
11221;DHT22;8517;53.546;10.104;2023-08-31T07:23:49;21.30;99.90
11221;DHT22;8517;53.546;10.104;2023-08-31T07:26:16;21.40;99.90
11221;DHT22;8517;53.546;10.104;2023-08-31T07:28:44;21.40;99.90
11221;DHT22;8517;53.546;10.104;2023-08-31T07:31:12;21.40;99.90
11221;DHT22;8517;53.546;10.104;2023-08-31T07:33:39;21.50;99.90
11221;DHT22;8517;53.546;10.104;2023-08-31T07:36:06;21.40;99.90
11221;DHT22;8517;53.546;10.104;2023-08-31T07:38:33;21.40;99.90
11221;DHT22;8517;53.546;10.104;2023-08-31T07:41:00;21.50;99.90
11221;DHT22;8517;53.546;10.104;2023-08-31T07:43:27;21.50;99.90
11221;DHT22;8517;53.546;10.104;2023-08-31T07:45:57;21.50;99.90
11221;DHT22;8517;53.546;10.104;2023-08-31T07:48:25;21.50;99.90
11221;DHT22;8517;53.546;10.104;2023-08-31T07:50:52;21.50;99.90
11221;DHT22;8517;53.546;10.104;2023-08-31T07:53:20;21.50;99.90
11221;DHT22;8517;53.546;10.104;2023-08-31T07:55:52;21.40;99.90
11221;DHT22;8517;53.546;10.104;2023-08-31T07:58:20;21.30;99.90
11221;DHT22;8517;53.546;10.104;2023-08-31T08:00:47;21.10;99.90
11221;DHT22;8517;53.546;10.104;2023-08-31T08:03:15;21.10;99.90
11221;DHT22;8517;53.546;10.104;2023-08-31T08:05:42;21.00;99.90
11221;DHT22;8517;53.546;10.104;2023-08-31T08:08:10;21.00;99.90
11221;DHT22;8517;53.546;10.104;2023-08-31T08:10:37;21.00;99.90
11221;DHT22;8517;53.546;10.104;2023-08-31T08:13:04;20.90;99.90
11221;DHT22;8517;53.546;10.104;2023-08-31T08:15:31;20.80;99.90
11221;DHT22;8517;53.546;10.104;2023-08-31T08:17:58;20.60;99.90
11221;DHT22;8517;53.546;10.104;2023-08-31T08:20:27;20.50;99.90
11221;DHT22;8517;53.546;10.104;2023-08-31T08:22:54;20.40;99.90
11221;DHT22;8517;53.546;10.104;2023-08-31T08:25:21;20.20;99.90
11221;DHT22;8517;53.546;10.104;2023-08-31T08:27:48;20.10;99.90
11221;DHT22;8517;53.546;10.104;2023-08-31T08:30:15;20.00;99.90
11221;DHT22;8517;53.546;10.104;2023-08-31T08:32:42;20.00;99.90
11221;DHT22;8517;53.546;10.104;2023-08-31T08:35:09;20.00;99.90
11221;DHT22;8517;53.546;10.104;2023-08-31T08:37:37;20.00;99.90
11221;DHT22;8517;53.546;10.104;2023-08-31T08:40:05;19.90;99.90
11221;DHT22;8517;53.546;10.104;2023-08-31T08:42:32;19.90;99.90
11221;DHT22;8517;53.546;10.104;2023-08-31T08:45:08;19.90;99.90
11221;DHT22;8517;53.546;10.104;2023-08-31T08:47:41;19.90;99.90
11221;DHT22;8517;53.546;10.104;2023-08-31T08:50:09;19.90;99.90
11221;DHT22;8517;53.546;10.104;2023-08-31T08:52:38;19.90;99.90
11221;DHT22;8517;53.546;10.104;2023-08-31T08:55:06;19.90;99.90
11221;DHT22;8517;53.546;10.104;2023-08-31T08:57:34;19.90;99.90
11221;DHT22;8517;53.546;10.104;2023-08-31T09:00:01;19.90;99.90
11221;DHT22;8517;53.546;10.104;2023-08-31T09:02:28;20.00;99.90
11221;DHT22;8517;53.546;10.104;2023-08-31T09:04:55;20.00;99.90
11221;DHT22;8517;53.546;10.104;2023-08-31T09:07:22;19.90;99.90
11221;DHT22;8517;53.546;10.104;2023-08-31T09:09:52;19.90;99.90
11221;DHT22;8517;53.546;10.104;2023-08-31T09:12:21;19.90;99.90
11221;DHT22;8517;53.546;10.104;2023-08-31T09:14:58;19.90;99.90
11221;DHT22;8517;53.546;10.104;2023-08-31T09:17:25;20.00;99.90
11221;DHT22;8517;53.546;10.104;2023-08-31T09:19:59;20.00;99.90
11221;DHT22;8517;53.546;10.104;2023-08-31T09:22:29;20.00;99.90
11221;DHT22;8517;53.546;10.104;2023-08-31T09:24:57;20.00;99.90
11221;DHT22;8517;53.546;10.104;2023-08-31T09:27:23;19.90;99.90
11221;DHT22;8517;53.546;10.104;2023-08-31T09:29:50;19.80;99.90
11221;DHT22;8517;53.546;10.104;2023-08-31T09:32:20;19.80;99.90
11221;DHT22;8517;53.546;10.104;2023-08-31T09:34:47;19.80;99.90
11221;DHT22;8517;53.546;10.104;2023-08-31T09:37:16;19.70;99.90
11221;DHT22;8517;53.546;10.104;2023-08-31T09:39:43;19.70;99.90
11221;DHT22;8517;53.546;10.104;2023-08-31T09:42:11;19.60;99.90
11221;DHT22;8517;53.546;10.104;2023-08-31T09:44:40;19.60;99.90
11221;DHT22;8517;53.546;10.104;2023-08-31T09:47:08;19.60;99.90
11221;DHT22;8517;53.546;10.104;2023-08-31T09:49:36;19.50;99.90
11221;DHT22;8517;53.546;10.104;2023-08-31T09:52:05;19.40;99.90
11221;DHT22;8517;53.546;10.104;2023-08-31T09:54:35;19.40;99.90
11221;DHT22;8517;53.546;10.104;2023-08-31T09:57:02;19.30;99.90
11221;DHT22;8517;53.546;10.104;2023-08-31T09:59:31;19.30;99.90
11221;DHT22;8517;53.546;10.104;2023-08-31T10:01:59;19.30;99.90
11221;DHT22;8517;53.546;10.104;2023-08-31T10:04:29;19.40;99.90
11221;DHT22;8517;53.546;10.104;2023-08-31T10:06:58;19.50;99.90
11221;DHT22;8517;53.546;10.104;2023-08-31T10:09:26;19.50;99.90
11221;DHT22;8517;53.546;10.104;2023-08-31T10:11:54;19.50;99.90
11221;DHT22;8517;53.546;10.104;2023-08-31T10:14:21;19.50;99.90
11221;DHT22;8517;53.546;10.104;2023-08-31T10:16:50;19.50;99.90
11221;DHT22;8517;53.546;10.104;2023-08-31T10:19:19;19.60;99.90
11221;DHT22;8517;53.546;10.104;2023-08-31T10:21:45;19.60;99.90
11221;DHT22;8517;53.546;10.104;2023-08-31T10:24:12;19.60;99.90
11221;DHT22;8517;53.546;10.104;2023-08-31T10:26:39;19.60;99.90
11221;DHT22;8517;53.546;10.104;2023-08-31T10:29:06;19.60;99.90
11221;DHT22;8517;53.546;10.104;2023-08-31T10:31:33;19.60;99.90
11221;DHT22;8517;53.546;10.104;2023-08-31T10:34:03;19.60;99.90
11221;DHT22;8517;53.546;10.104;2023-08-31T10:36:37;19.70;99.90
11221;DHT22;8517;53.546;10.104;2023-08-31T10:39:12;19.60;99.90
11221;DHT22;8517;53.546;10.104;2023-08-31T10:41:39;19.60;99.90
11221;DHT22;8517;53.546;10.104;2023-08-31T10:44:21;19.60;99.90
11221;DHT22;8517;53.546;10.104;2023-08-31T10:46:49;19.60;99.90
11221;DHT22;8517;53.546;10.104;2023-08-31T10:49:19;19.60;99.90
11221;DHT22;8517;53.546;10.104;2023-08-31T10:51:48;19.60;99.90
11221;DHT22;8517;53.546;10.104;2023-08-31T10:54:21;19.70;99.90
11221;DHT22;8517;53.546;10.104;2023-08-31T10:57:02;19.80;99.90
11221;DHT22;8517;53.546;10.104;2023-08-31T10:59:44;19.80;99.90
11221;DHT22;8517;53.546;10.104;2023-08-31T11:02:27;19.90;99.90
11221;DHT22;8517;53.546;10.104;2023-08-31T11:04:59;19.90;99.90
11221;DHT22;8517;53.546;10.104;2023-08-31T11:07:29;20.00;99.90
11221;DHT22;8517;53.546;10.104;2023-08-31T11:10:07;20.00;99.90
11221;DHT22;8517;53.546;10.104;2023-08-31T11:12:34;20.10;99.90
11221;DHT22;8517;53.546;10.104;2023-08-31T11:15:01;20.10;99.90
11221;DHT22;8517;53.546;10.104;2023-08-31T11:17:29;20.20;99.90
11221;DHT22;8517;53.546;10.104;2023-08-31T11:19:57;20.30;99.90
11221;DHT22;8517;53.546;10.104;2023-08-31T11:22:26;20.30;99.90
11221;DHT22;8517;53.546;10.104;2023-08-31T11:24:53;20.30;99.90
11221;DHT22;8517;53.546;10.104;2023-08-31T11:27:20;20.30;99.90
11221;DHT22;8517;53.546;10.104;2023-08-31T11:29:47;20.40;99.90
11221;DHT22;8517;53.546;10.104;2023-08-31T11:32:14;20.40;99.90
11221;DHT22;8517;53.546;10.104;2023-08-31T11:34:42;20.40;99.90
11221;DHT22;8517;53.546;10.104;2023-08-31T11:37:11;20.40;99.90
11221;DHT22;8517;53.546;10.104;2023-08-31T11:39:41;20.40;99.90
11221;DHT22;8517;53.546;10.104;2023-08-31T11:42:08;20.50;99.90
11221;DHT22;8517;53.546;10.104;2023-08-31T11:44:35;20.60;99.90
11221;DHT22;8517;53.546;10.104;2023-08-31T11:47:02;20.70;99.90
11221;DHT22;8517;53.546;10.104;2023-08-31T11:49:30;20.70;99.90
11221;DHT22;8517;53.546;10.104;2023-08-31T11:51:58;20.80;99.90
11221;DHT22;8517;53.546;10.104;2023-08-31T11:54:26;20.80;99.90
11221;DHT22;8517;53.546;10.104;2023-08-31T11:56:53;20.90;99.90
11221;DHT22;8517;53.546;10.104;2023-08-31T11:59:20;20.90;99.90
11221;DHT22;8517;53.546;10.104;2023-08-31T12:01:49;20.90;99.90
11221;DHT22;8517;53.546;10.104;2023-08-31T12:04:19;20.90;99.90
11221;DHT22;8517;53.546;10.104;2023-08-31T12:06:46;20.90;99.90
11221;DHT22;8517;53.546;10.104;2023-08-31T12:09:14;20.90;99.90
11221;DHT22;8517;53.546;10.104;2023-08-31T12:11:49;20.90;99.90
11221;DHT22;8517;53.546;10.104;2023-08-31T12:14:20;20.90;99.90
11221;DHT22;8517;53.546;10.104;2023-08-31T12:16:47;20.80;99.90
11221;DHT22;8517;53.546;10.104;2023-08-31T12:19:15;20.80;99.90
11221;DHT22;8517;53.546;10.104;2023-08-31T12:21:43;20.80;99.90
11221;DHT22;8517;53.546;10.104;2023-08-31T12:24:10;20.80;99.90
11221;DHT22;8517;53.546;10.104;2023-08-31T12:26:37;20.80;99.90
11221;DHT22;8517;53.546;10.104;2023-08-31T12:29:05;20.80;99.90
11221;DHT22;8517;53.546;10.104;2023-08-31T12:31:32;20.80;99.90
11221;DHT22;8517;53.546;10.104;2023-08-31T12:33:59;20.90;99.90
11221;DHT22;8517;53.546;10.104;2023-08-31T12:36:30;20.90;99.90
11221;DHT22;8517;53.546;10.104;2023-08-31T12:39:39;21.00;99.90
11221;DHT22;8517;53.546;10.104;2023-08-31T12:42:08;21.10;99.90
11221;DHT22;8517;53.546;10.104;2023-08-31T12:44:36;21.30;99.90
11221;DHT22;8517;53.546;10.104;2023-08-31T12:47:03;21.40;99.90
11221;DHT22;8517;53.546;10.104;2023-08-31T12:49:30;21.50;99.90
11221;DHT22;8517;53.546;10.104;2023-08-31T12:51:57;21.50;99.90
11221;DHT22;8517;53.546;10.104;2023-08-31T12:54:24;21.50;99.90
11221;DHT22;8517;53.546;10.104;2023-08-31T12:56:50;21.50;99.90
11221;DHT22;8517;53.546;10.104;2023-08-31T12:59:17;21.30;99.90
11221;DHT22;8517;53.546;10.104;2023-08-31T13:01:45;21.10;99.90
11221;DHT22;8517;53.546;10.104;2023-08-31T13:04:12;20.80;99.90
11221;DHT22;8517;53.546;10.104;2023-08-31T13:06:40;20.40;99.90
11221;DHT22;8517;53.546;10.104;2023-08-31T13:09:06;19.90;99.90
11221;DHT22;8517;53.546;10.104;2023-08-31T13:11:34;19.50;99.90
11221;DHT22;8517;53.546;10.104;2023-08-31T13:14:01;19.10;99.90
11221;DHT22;8517;53.546;10.104;2023-08-31T13:16:28;18.80;99.90
11221;DHT22;8517;53.546;10.104;2023-08-31T13:18:56;18.60;99.90
11221;DHT22;8517;53.546;10.104;2023-08-31T13:21:22;18.40;99.90
11221;DHT22;8517;53.546;10.104;2023-08-31T13:23:49;18.40;99.90
11221;DHT22;8517;53.546;10.104;2023-08-31T13:26:16;18.30;99.90
11221;DHT22;8517;53.546;10.104;2023-08-31T13:28:43;18.40;99.90
11221;DHT22;8517;53.546;10.104;2023-08-31T13:31:09;18.40;99.90
11221;DHT22;8517;53.546;10.104;2023-08-31T13:33:37;18.40;99.90
11221;DHT22;8517;53.546;10.104;2023-08-31T13:36:05;18.50;99.90
11221;DHT22;8517;53.546;10.104;2023-08-31T13:38:33;18.60;99.90
11221;DHT22;8517;53.546;10.104;2023-08-31T13:41:00;18.70;99.90
11221;DHT22;8517;53.546;10.104;2023-08-31T13:43:28;18.80;99.90
11221;DHT22;8517;53.546;10.104;2023-08-31T13:45:55;18.80;99.90
11221;DHT22;8517;53.546;10.104;2023-08-31T13:48:22;18.90;99.90
11221;DHT22;8517;53.546;10.104;2023-08-31T13:50:49;18.90;99.90
11221;DHT22;8517;53.546;10.104;2023-08-31T13:53:17;18.90;99.90
11221;DHT22;8517;53.546;10.104;2023-08-31T13:55:44;18.90;99.90
11221;DHT22;8517;53.546;10.104;2023-08-31T13:58:11;18.90;99.90
11221;DHT22;8517;53.546;10.104;2023-08-31T14:00:40;18.90;99.90
11221;DHT22;8517;53.546;10.104;2023-08-31T14:03:07;18.90;99.90
11221;DHT22;8517;53.546;10.104;2023-08-31T14:05:34;19.00;99.90
11221;DHT22;8517;53.546;10.104;2023-08-31T14:08:01;19.00;99.90
11221;DHT22;8517;53.546;10.104;2023-08-31T14:10:30;19.10;99.90
11221;DHT22;8517;53.546;10.104;2023-08-31T14:12:58;19.10;99.90
11221;DHT22;8517;53.546;10.104;2023-08-31T14:15:25;19.10;99.90
11221;DHT22;8517;53.546;10.104;2023-08-31T14:17:52;19.20;99.90
11221;DHT22;8517;53.546;10.104;2023-08-31T14:20:19;19.20;99.90
11221;DHT22;8517;53.546;10.104;2023-08-31T14:22:45;19.30;99.90
11221;DHT22;8517;53.546;10.104;2023-08-31T14:25:12;19.30;99.90
11221;DHT22;8517;53.546;10.104;2023-08-31T14:27:41;19.30;99.90
11221;DHT22;8517;53.546;10.104;2023-08-31T14:30:08;19.30;99.90
11221;DHT22;8517;53.546;10.104;2023-08-31T14:32:35;19.30;99.90
11221;DHT22;8517;53.546;10.104;2023-08-31T14:35:02;19.30;99.90
11221;DHT22;8517;53.546;10.104;2023-08-31T14:37:29;19.30;99.90
11221;DHT22;8517;53.546;10.104;2023-08-31T14:39:56;19.30;99.90
11221;DHT22;8517;53.546;10.104;2023-08-31T14:42:23;19.40;99.90
11221;DHT22;8517;53.546;10.104;2023-08-31T14:44:51;19.40;99.90
11221;DHT22;8517;53.546;10.104;2023-08-31T14:47:18;19.50;99.90
11221;DHT22;8517;53.546;10.104;2023-08-31T14:49:45;19.50;99.90
11221;DHT22;8517;53.546;10.104;2023-08-31T14:52:12;19.60;99.90
11221;DHT22;8517;53.546;10.104;2023-08-31T14:54:39;19.70;99.90
11221;DHT22;8517;53.546;10.104;2023-08-31T14:57:06;19.80;99.90
11221;DHT22;8517;53.546;10.104;2023-08-31T14:59:32;19.90;99.90
11221;DHT22;8517;53.546;10.104;2023-08-31T15:02:01;19.90;99.90
11221;DHT22;8517;53.546;10.104;2023-08-31T15:04:30;20.00;99.90
11221;DHT22;8517;53.546;10.104;2023-08-31T15:06:57;20.00;99.90
11221;DHT22;8517;53.546;10.104;2023-08-31T15:09:25;20.10;99.90
11221;DHT22;8517;53.546;10.104;2023-08-31T15:11:52;20.10;99.90
11221;DHT22;8517;53.546;10.104;2023-08-31T15:14:19;20.10;99.90
11221;DHT22;8517;53.546;10.104;2023-08-31T15:16:46;20.20;99.90
11221;DHT22;8517;53.546;10.104;2023-08-31T15:19:14;20.30;99.90
11221;DHT22;8517;53.546;10.104;2023-08-31T15:21:41;20.30;99.90
11221;DHT22;8517;53.546;10.104;2023-08-31T15:24:08;20.30;99.90
11221;DHT22;8517;53.546;10.104;2023-08-31T15:26:34;20.30;99.90
11221;DHT22;8517;53.546;10.104;2023-08-31T15:29:01;20.30;99.90
11221;DHT22;8517;53.546;10.104;2023-08-31T15:31:29;20.30;99.90
11221;DHT22;8517;53.546;10.104;2023-08-31T15:33:56;20.20;99.90
11221;DHT22;8517;53.546;10.104;2023-08-31T15:36:24;20.20;99.90
11221;DHT22;8517;53.546;10.104;2023-08-31T15:38:51;20.20;99.90
11221;DHT22;8517;53.546;10.104;2023-08-31T15:41:19;20.10;99.90